createdAt,value
2022-11-19T00:01:13.459Z,99962.22
2022-11-19T00:03:42.282Z,99958.06
2022-11-19T00:06:11.407Z,99964.31
2022-11-19T00:08:39.392Z,99959.72
2022-11-19T00:11:09.817Z,99957.19
2022-11-19T00:13:39.177Z,99950.88
2022-11-19T00:16:13.844Z,99946.50
2022-11-19T00:18:41.385Z,99937.78
2022-11-19T00:21:09.890Z,99929.88
2022-11-19T00:23:38.232Z,99935.47
2022-11-19T00:26:06.788Z,99939.50
2022-11-19T00:28:34.434Z,99943.19
2022-11-19T00:31:20.052Z,99945.44
2022-11-19T00:33:50.612Z,99937.84
2022-11-19T00:36:18.460Z,99936.31
2022-11-19T00:38:45.822Z,99931.66
2022-11-19T00:41:14.179Z,99926.56
2022-11-19T00:43:47.448Z,99933.06
2022-11-19T00:46:16.890Z,99942.88
2022-11-19T00:48:45.378Z,99928.22
2022-11-19T00:54:17.063Z,99932.63
2022-11-19T00:56:44.786Z,99931.81
2022-11-19T00:59:12.373Z,99941.91
2022-11-19T01:01:40.293Z,99945.53
2022-11-19T01:04:08.054Z,99948.34
2022-11-19T01:06:35.720Z,99951.06
2022-11-19T01:09:03.700Z,99961.41
2022-11-19T01:11:32.431Z,99948.22
2022-11-19T01:14:00.102Z,99951.22
2022-11-19T01:16:29.553Z,99943.91
2022-11-19T01:18:56.960Z,99944.53
2022-11-19T01:21:25.881Z,99954.91
2022-11-19T01:23:53.887Z,99959.75
2022-11-19T01:26:21.683Z,99956.41
2022-11-19T01:28:49.389Z,99961.44
2022-11-19T01:31:18.374Z,99971.59
2022-11-19T01:33:46.249Z,99971.47
2022-11-19T01:36:18.502Z,99969.66
2022-11-19T01:38:51.114Z,99966.63
2022-11-19T01:41:19.811Z,99972.72
2022-11-19T01:43:52.263Z,99972.91
2022-11-19T01:46:24.146Z,99964.31
2022-11-19T01:48:54.518Z,99965.81
2022-11-19T01:51:24.843Z,99967.28
2022-11-19T01:53:54.488Z,99970.00
2022-11-19T01:56:22.868Z,99977.50
2022-11-19T01:58:53.938Z,99975.84
2022-11-19T02:01:22.495Z,99972.53
2022-11-19T02:03:52.491Z,99976.47
2022-11-19T02:06:19.852Z,99974.22
2022-11-19T02:08:50.031Z,99966.72
2022-11-19T02:11:26.348Z,99963.72
2022-11-19T02:14:02.823Z,99978.06
2022-11-19T02:16:40.152Z,99974.63
2022-11-19T02:19:16.780Z,99974.88
2022-11-19T02:22:04.896Z,99969.63
2022-11-19T02:24:41.810Z,99976.28
2022-11-19T02:27:35.265Z,99966.66
2022-11-19T02:30:06.192Z,99964.66
2022-11-19T02:32:54.178Z,99962.53
2022-11-19T02:35:25.303Z,99962.06
2022-11-19T02:37:59.738Z,99951.97
2022-11-19T02:40:32.946Z,99957.69
2022-11-19T02:43:03.087Z,99958.03
2022-11-19T02:45:36.461Z,99962.31
2022-11-19T02:48:09.388Z,99964.84
2022-11-19T02:50:44.181Z,99959.34
2022-11-19T02:53:12.047Z,99964.16
2022-11-19T02:55:39.746Z,99976.34
2022-11-19T02:58:38.370Z,99966.94
2022-11-19T03:01:25.785Z,99970.16
2022-11-19T03:04:12.514Z,99979.09
2022-11-19T03:06:40.409Z,99981.25
2022-11-19T03:09:08.473Z,99974.69
2022-11-19T03:11:35.934Z,99976.69
2022-11-19T03:14:36.938Z,99974.91
2022-11-19T03:17:13.628Z,99981.72
2022-11-19T03:19:46.109Z,99992.13
2022-11-19T03:22:18.725Z,99993.41
2022-11-19T03:24:50.850Z,99987.44
2022-11-19T03:27:36.430Z,99991.50
2022-11-19T03:30:05.739Z,99999.03
2022-11-19T03:32:37.225Z,99993.81
2022-11-19T03:35:07.948Z,99993.09
2022-11-19T03:37:38.803Z,99984.72
2022-11-19T03:40:07.919Z,99992.56
2022-11-19T03:42:35.820Z,99985.66
2022-11-19T03:45:05.155Z,99998.44
2022-11-19T03:47:36.234Z,99995.00
2022-11-19T03:50:23.077Z,99999.28
2022-11-19T03:52:51.048Z,100003.56
2022-11-19T03:55:18.482Z,99998.16
2022-11-19T03:57:46.222Z,99998.47
2022-11-19T04:00:14.117Z,100003.81
2022-11-19T04:02:43.053Z,100010.06
2022-11-19T04:05:10.444Z,100000.03
2022-11-19T04:07:38.289Z,99998.78
2022-11-19T04:10:06.364Z,100002.97
2022-11-19T04:12:33.635Z,100009.13
2022-11-19T04:15:00.978Z,100003.06
2022-11-19T04:17:28.388Z,100004.63
2022-11-19T04:19:55.720Z,100000.34
2022-11-19T04:22:23.022Z,99999.31
2022-11-19T04:24:50.365Z,100002.97
2022-11-19T04:27:18.134Z,100001.50
2022-11-19T04:29:45.870Z,100001.28
2022-11-19T04:32:13.220Z,100004.13
2022-11-19T04:34:41.493Z,100002.22
2022-11-19T04:37:08.799Z,100002.44
2022-11-19T04:39:36.082Z,100007.69
2022-11-19T04:42:03.454Z,100003.50
2022-11-19T04:44:30.861Z,100002.38
2022-11-19T04:46:58.284Z,100000.47
2022-11-19T04:49:26.392Z,99998.22
2022-11-19T04:51:54.340Z,100005.84
2022-11-19T04:54:21.683Z,100000.78
2022-11-19T04:56:49.134Z,100014.03
2022-11-19T04:59:17.058Z,100019.66
2022-11-19T05:01:45.652Z,100029.59
2022-11-19T05:04:13.041Z,100021.13
2022-11-19T05:06:40.876Z,100027.94
2022-11-19T05:09:08.548Z,100027.28
2022-11-19T05:11:36.348Z,100030.16
2022-11-19T05:14:04.157Z,100023.72
2022-11-19T05:16:32.133Z,100029.56
2022-11-19T05:18:59.422Z,100039.16
2022-11-19T05:21:27.894Z,100035.06
2022-11-19T05:23:55.540Z,100039.69
2022-11-19T05:26:22.912Z,100043.13
2022-11-19T05:28:50.239Z,100045.66
2022-11-19T05:31:18.389Z,100054.22
2022-11-19T05:33:45.846Z,100055.31
2022-11-19T05:36:13.305Z,100047.47
2022-11-19T05:38:41.260Z,100061.81
2022-11-19T05:41:09.023Z,100057.34
2022-11-19T05:43:36.366Z,100058.38
2022-11-19T05:46:03.642Z,100062.44
2022-11-19T05:48:31.877Z,100061.19
2022-11-19T05:50:59.204Z,100055.84
2022-11-19T05:53:26.761Z,100064.72
2022-11-19T05:55:54.496Z,100062.75
2022-11-19T05:58:21.775Z,100058.66
2022-11-19T06:00:53.426Z,100052.59
2022-11-19T06:03:20.782Z,100057.13
2022-11-19T06:05:48.136Z,100065.38
2022-11-19T06:08:15.894Z,100068.59
2022-11-19T06:10:43.331Z,100068.59
2022-11-19T06:13:10.729Z,100067.84
2022-11-19T06:15:38.141Z,100065.63
2022-11-19T06:18:05.934Z,100066.25
2022-11-19T06:20:33.326Z,100068.44
2022-11-19T06:23:00.652Z,100071.88
2022-11-19T06:25:28.349Z,100074.91
2022-11-19T06:27:55.643Z,100072.97
2022-11-19T06:30:22.905Z,100080.28
2022-11-19T06:32:50.132Z,100067.75
2022-11-19T06:35:17.863Z,100075.16
2022-11-19T06:37:45.187Z,100078.66
2022-11-19T06:40:13.163Z,100078.50
2022-11-19T06:42:41.198Z,100083.63
2022-11-19T06:45:12.728Z,100090.34
2022-11-19T06:47:41.054Z,100087.25
2022-11-19T06:50:09.434Z,100082.88
2022-11-19T06:52:36.828Z,100087.81
2022-11-19T06:55:04.904Z,100087.94
2022-11-19T06:57:32.312Z,100093.16
2022-11-19T06:59:59.641Z,100098.50
2022-11-19T07:02:27.560Z,100094.41
2022-11-19T07:04:55.022Z,100093.38
2022-11-19T07:07:22.691Z,100096.00
2022-11-19T07:09:50.219Z,100088.47
2022-11-19T07:12:17.672Z,100099.84
2022-11-19T07:14:45.071Z,100101.97
2022-11-19T07:17:12.475Z,100098.50
2022-11-19T07:19:39.793Z,100100.38
2022-11-19T07:22:07.211Z,100098.91
2022-11-19T07:24:35.011Z,100101.31
2022-11-19T07:27:02.421Z,100110.41
2022-11-19T07:29:29.763Z,100103.19
2022-11-19T07:31:57.369Z,100099.75
2022-11-19T07:34:24.689Z,100107.16
2022-11-19T07:36:52.439Z,100104.94
2022-11-19T07:39:20.319Z,100105.50
2022-11-19T07:42:06.751Z,100108.19
2022-11-19T07:44:34.229Z,100114.69
2022-11-19T07:47:02.567Z,100122.44
2022-11-19T07:49:30.364Z,100116.25
2022-11-19T07:51:57.702Z,100124.38
2022-11-19T07:54:25.306Z,100125.50
2022-11-19T07:56:53.042Z,100124.28
2022-11-19T07:59:20.702Z,100116.91
2022-11-19T08:01:49.099Z,100125.03
2022-11-19T08:04:16.927Z,100123.66
2022-11-19T08:06:44.516Z,100123.44
2022-11-19T08:09:12.112Z,100126.28
2022-11-19T08:11:40.560Z,100125.31
2022-11-19T08:14:09.282Z,100135.16
2022-11-19T08:16:55.261Z,100131.63
2022-11-19T08:19:23.411Z,100141.00
2022-11-19T08:21:51.284Z,100141.13
2022-11-19T08:24:20.303Z,100137.03
2022-11-19T08:26:48.282Z,100135.41
2022-11-19T08:29:17.041Z,100136.88
2022-11-19T08:31:45.902Z,100154.28
2022-11-19T08:34:13.252Z,100150.91
2022-11-19T08:36:41.687Z,100149.00
2022-11-19T08:39:09.807Z,100142.81
2022-11-19T08:41:55.885Z,100151.28
2022-11-19T08:44:24.160Z,100144.34
2022-11-19T08:46:51.437Z,100153.44
2022-11-19T08:49:18.819Z,100149.91
2022-11-19T08:51:46.156Z,100161.19
2022-11-19T08:54:13.875Z,100159.19
2022-11-19T08:56:41.300Z,100164.28
2022-11-19T08:59:08.729Z,100168.63
2022-11-19T09:01:36.380Z,100172.16
2022-11-19T09:04:03.886Z,100175.59
2022-11-19T09:06:34.227Z,100176.84
2022-11-19T09:09:02.218Z,100174.19
2022-11-19T09:11:30.445Z,100181.84
2022-11-19T09:13:58.228Z,100190.47
2022-11-19T09:16:25.967Z,100179.69
2022-11-19T09:18:54.237Z,100181.06
2022-11-19T09:21:21.685Z,100183.81
2022-11-19T09:23:49.002Z,100180.13
2022-11-19T09:26:18.156Z,100183.22
2022-11-19T09:28:46.505Z,100178.50
2022-11-19T09:31:15.265Z,100179.50
2022-11-19T09:33:43.931Z,100174.72
2022-11-19T09:36:11.589Z,100173.13
2022-11-19T09:38:40.888Z,100173.22
2022-11-19T09:41:14.121Z,100170.16
2022-11-19T09:43:50.314Z,100167.66
2022-11-19T09:46:23.994Z,100168.47
2022-11-19T09:48:53.475Z,100172.03
2022-11-19T09:51:29.208Z,100169.63
2022-11-19T09:54:03.700Z,100164.97
2022-11-19T09:56:34.817Z,100165.34
2022-11-19T09:59:04.744Z,100169.59
2022-11-19T10:01:40.270Z,100162.34
2022-11-19T10:04:10.990Z,100169.66
2022-11-19T10:06:50.962Z,100166.66
2022-11-19T10:09:36.999Z,100172.31
2022-11-19T10:12:13.154Z,100161.38
2022-11-19T10:14:49.624Z,100163.53
2022-11-19T10:17:36.155Z,100156.66
2022-11-19T10:20:03.542Z,100164.44
2022-11-19T10:22:39.317Z,100161.78
2022-11-19T10:25:17.256Z,100148.94
2022-11-19T10:27:50.202Z,100146.28
2022-11-19T10:30:21.062Z,100146.44
2022-11-19T10:33:00.137Z,100145.69
2022-11-19T10:35:30.733Z,100150.56
2022-11-19T10:38:00.573Z,100142.81
2022-11-19T10:40:49.454Z,100145.16
2022-11-19T10:43:23.649Z,100138.69
2022-11-19T10:45:51.365Z,100134.72
2022-11-19T10:48:18.629Z,100133.94
2022-11-19T10:50:45.982Z,100119.47
2022-11-19T10:53:23.631Z,100119.56
2022-11-19T10:55:54.649Z,100106.00
2022-11-19T10:58:26.713Z,100103.47
2022-11-19T11:00:55.308Z,100105.50
2022-11-19T11:03:54.952Z,100103.91
2022-11-19T11:06:22.259Z,100094.50
2022-11-19T11:08:54.500Z,100087.00
2022-11-19T11:11:46.650Z,100091.09
2022-11-19T11:14:33.811Z,100083.97
2022-11-19T11:17:01.983Z,100084.38
2022-11-19T11:19:30.428Z,100077.09
2022-11-19T11:21:58.319Z,100080.25
2022-11-19T11:24:36.434Z,100073.47
2022-11-19T11:27:21.118Z,100069.88
2022-11-19T11:29:48.495Z,100067.22
2022-11-19T11:32:33.979Z,100068.47
2022-11-19T11:35:06.914Z,100064.50
2022-11-19T11:37:35.633Z,100057.63
2022-11-19T11:40:03.785Z,100053.84
2022-11-19T11:42:31.130Z,100050.25
2022-11-19T11:45:00.058Z,100045.22
2022-11-19T11:47:37.961Z,100045.97
2022-11-19T11:50:14.454Z,100040.69
2022-11-19T11:52:44.869Z,100032.91
2022-11-19T11:55:24.518Z,100027.09
2022-11-19T11:58:02.384Z,100014.31
2022-11-19T12:00:33.285Z,100012.44
2022-11-19T12:03:02.548Z,100003.38
2022-11-19T12:05:59.867Z,100008.50
2022-11-19T12:08:27.379Z,99999.16
2022-11-19T12:11:02.931Z,99988.22
2022-11-19T12:13:49.147Z,99988.91
2022-11-19T12:16:25.238Z,99984.59
2022-11-19T12:18:55.386Z,99984.09
2022-11-19T12:21:26.402Z,99973.56
2022-11-19T12:24:17.573Z,99977.97
2022-11-19T12:26:54.508Z,99972.72
2022-11-19T12:29:33.654Z,99976.88
2022-11-19T12:32:01.379Z,99979.38
2022-11-19T12:34:32.005Z,99972.31
2022-11-19T12:37:18.315Z,99960.09
2022-11-19T12:39:47.196Z,99962.53
2022-11-19T12:42:33.160Z,99965.47
2022-11-19T12:45:24.105Z,99965.38
2022-11-19T12:47:58.075Z,99964.59
2022-11-19T12:50:46.183Z,99966.00
2022-11-19T12:53:19.366Z,99958.53
2022-11-19T12:55:53.199Z,99957.91
2022-11-19T12:58:33.165Z,99948.84
2022-11-19T13:01:04.410Z,99949.09
2022-11-19T13:03:31.785Z,99951.72
2022-11-19T13:06:07.085Z,99954.41
2022-11-19T13:08:44.027Z,99956.88
2022-11-19T13:11:11.776Z,99957.22
2022-11-19T13:13:43.026Z,99962.91
2022-11-19T13:16:12.599Z,99964.44
2022-11-19T13:18:45.396Z,99954.59
2022-11-19T13:21:25.949Z,99956.91
2022-11-19T13:23:54.325Z,99955.94
2022-11-19T13:26:30.358Z,99953.63
2022-11-19T13:29:18.328Z,99955.81
2022-11-19T13:31:50.546Z,99953.81
2022-11-19T13:34:21.382Z,99952.56
2022-11-19T13:37:15.039Z,99955.06
2022-11-19T13:39:45.443Z,99963.41
2022-11-19T13:42:32.870Z,99961.53
2022-11-19T13:45:00.409Z,99953.47
2022-11-19T13:47:31.068Z,99962.44
2022-11-19T13:50:01.124Z,99958.47
2022-11-19T13:52:28.503Z,99964.72
2022-11-19T13:54:57.252Z,99954.16
2022-11-19T13:57:37.717Z,99953.66
2022-11-19T14:00:06.706Z,99954.31
2022-11-19T14:02:59.079Z,99956.19
2022-11-19T14:05:32.351Z,99953.94
2022-11-19T14:08:05.953Z,99966.50
2022-11-19T14:10:42.316Z,99968.16
2022-11-19T14:13:28.425Z,99971.78
2022-11-19T14:16:23.404Z,99970.53
2022-11-19T14:19:11.682Z,99970.84
2022-11-19T14:21:58.338Z,99967.38
2022-11-19T14:24:44.622Z,99967.91
2022-11-19T14:27:17.866Z,99975.38
2022-11-19T14:29:45.337Z,99987.19
2022-11-19T14:32:13.015Z,99986.41
2022-11-19T14:34:59.328Z,99990.41
2022-11-19T14:37:29.859Z,99988.81
2022-11-19T14:40:00.566Z,99985.22
2022-11-19T14:42:28.371Z,99985.91
2022-11-19T14:45:01.511Z,99985.47
2022-11-19T14:47:33.458Z,99986.91
2022-11-19T14:50:04.745Z,99991.63
2022-11-19T14:52:34.287Z,100000.13
2022-11-19T14:55:04.686Z,100000.53
2022-11-19T14:57:31.983Z,100000.88
2022-11-19T15:00:01.954Z,100005.59
2022-11-19T15:02:35.449Z,100003.25
2022-11-19T15:05:35.770Z,100002.44
2022-11-19T15:08:18.558Z,100011.59
2022-11-19T15:10:48.918Z,100016.03
2022-11-19T15:13:21.843Z,100009.53
2022-11-19T15:15:50.566Z,100018.81
2022-11-19T15:18:20.909Z,100014.38
2022-11-19T15:20:54.326Z,100012.72
2022-11-19T15:23:22.044Z,100015.53
2022-11-19T15:25:49.282Z,100013.44
2022-11-19T15:28:28.246Z,100010.25
2022-11-19T15:31:03.731Z,100009.00
2022-11-19T15:33:45.078Z,100009.81
2022-11-19T15:36:12.507Z,100015.22
2022-11-19T15:38:47.234Z,100014.69
2022-11-19T15:41:15.845Z,100015.78
2022-11-19T15:43:48.992Z,100013.00
2022-11-19T15:46:16.454Z,100018.00
2022-11-19T15:49:03.923Z,100021.88
2022-11-19T15:51:34.453Z,100023.41
2022-11-19T15:54:03.397Z,100021.44
2022-11-19T15:56:39.248Z,100027.66
2022-11-19T15:59:08.116Z,100038.03
2022-11-19T16:01:36.417Z,100035.66
2022-11-19T16:04:06.788Z,100041.81
2022-11-19T16:06:36.230Z,100043.41
2022-11-19T16:09:04.995Z,100039.69
2022-11-19T16:11:53.149Z,100042.19
2022-11-19T16:14:48.615Z,100043.28
2022-11-19T16:17:43.565Z,100037.06
2022-11-19T16:21:08.685Z,100043.41
2022-11-19T16:23:56.674Z,100045.22
2022-11-19T16:26:24.273Z,100053.53
2022-11-19T16:28:52.409Z,100047.69
2022-11-19T16:31:20.593Z,100045.16
2022-11-19T16:33:55.271Z,100046.91
2022-11-19T16:36:23.533Z,100045.84
2022-11-19T16:38:53.538Z,100046.00
2022-11-19T16:41:43.053Z,100049.69
2022-11-19T16:44:21.273Z,100051.63
2022-11-19T16:46:50.227Z,100050.25
2022-11-19T16:49:32.122Z,100049.97
2022-11-19T16:52:00.297Z,100055.47
2022-11-19T16:54:48.499Z,100054.75
2022-11-19T16:57:24.254Z,100066.00
2022-11-19T17:00:00.286Z,100062.94
2022-11-19T17:02:36.255Z,100062.09
2022-11-19T17:05:15.926Z,100065.41
2022-11-19T17:07:49.642Z,100071.25
2022-11-19T17:10:31.775Z,100070.81
2022-11-19T17:13:04.596Z,100069.00
2022-11-19T17:15:33.822Z,100068.50
2022-11-19T17:18:13.795Z,100077.28
2022-11-19T17:20:45.172Z,100082.22
2022-11-19T17:23:18.414Z,100081.53
2022-11-19T17:25:52.617Z,100077.53
2022-11-19T17:28:26.730Z,100073.22
2022-11-19T17:30:55.393Z,100070.03
2022-11-19T17:33:24.477Z,100075.38
2022-11-19T17:35:52.650Z,100080.34
2022-11-19T17:38:24.314Z,100080.69
2022-11-19T17:41:01.408Z,100083.91
2022-11-19T17:43:53.277Z,100095.50
2022-11-19T17:46:25.336Z,100088.69
2022-11-19T17:48:53.528Z,100091.84
2022-11-19T17:51:23.757Z,100092.41
2022-11-19T17:53:52.374Z,100096.50
2022-11-19T17:56:24.731Z,100090.28
2022-11-19T17:58:52.752Z,100097.09
2022-11-19T18:01:20.614Z,100090.34
2022-11-19T18:03:48.409Z,100091.19
2022-11-19T18:06:17.910Z,100087.91
2022-11-19T18:08:46.487Z,100090.34
2022-11-19T18:11:25.590Z,100093.38
2022-11-19T18:13:57.263Z,100098.94
2022-11-19T18:16:28.228Z,100094.09
2022-11-19T18:18:55.928Z,100100.53
2022-11-19T18:21:24.109Z,100101.13
2022-11-19T18:23:52.198Z,100099.34
2022-11-19T18:26:22.547Z,100093.50
2022-11-19T18:28:50.612Z,100092.91
2022-11-19T18:31:22.298Z,100096.63
2022-11-19T18:33:50.254Z,100099.38
2022-11-19T18:36:18.927Z,100095.78
2022-11-19T18:38:46.799Z,100105.09
2022-11-19T18:41:15.874Z,100097.50
2022-11-19T18:44:02.509Z,100094.19
2022-11-19T18:46:30.695Z,100105.69
2022-11-19T18:48:58.432Z,100107.34
2022-11-19T18:51:29.332Z,100108.44
2022-11-19T18:53:57.307Z,100111.75
2022-11-19T18:56:25.052Z,100108.75
2022-11-19T18:58:52.980Z,100107.91
2022-11-19T19:01:23.662Z,100099.25
2022-11-19T19:03:52.501Z,100106.47
2022-11-19T19:06:23.192Z,100109.34
2022-11-19T19:08:50.974Z,100108.03
2022-11-19T19:11:37.186Z,100114.84
2022-11-19T19:14:05.299Z,100110.81
2022-11-19T19:16:34.319Z,100106.47
2022-11-19T19:19:03.452Z,100106.31
2022-11-19T19:21:31.434Z,100110.41
2022-11-19T19:23:59.108Z,100115.03
2022-11-19T19:26:26.782Z,100108.69
2022-11-19T19:28:55.265Z,100118.38
2022-11-19T19:31:24.115Z,100119.59
2022-11-19T19:33:52.750Z,100123.56
2022-11-19T19:36:22.008Z,100121.56
2022-11-19T19:38:50.643Z,100123.00
2022-11-19T19:41:21.143Z,100136.25
2022-11-19T19:43:49.676Z,100138.63
2022-11-19T19:46:20.888Z,100143.66
2022-11-19T19:48:51.774Z,100145.34
2022-11-19T19:51:21.209Z,100138.16
2022-11-19T19:53:49.698Z,100139.38
2022-11-19T19:56:29.480Z,100137.25
2022-11-19T19:58:57.964Z,100148.47
2022-11-19T20:01:33.968Z,100142.25
2022-11-19T20:04:04.410Z,100153.09
2022-11-19T20:06:33.124Z,100153.34
2022-11-19T20:09:06.880Z,100151.56
2022-11-19T20:11:36.648Z,100162.81
2022-11-19T20:14:05.467Z,100153.59
2022-11-19T20:16:33.551Z,100170.59
2022-11-19T20:19:01.741Z,100179.06
2022-11-19T20:21:33.772Z,100177.75
2022-11-19T20:24:01.343Z,100181.38
2022-11-19T20:26:31.193Z,100176.00
2022-11-19T20:29:01.372Z,100177.69
2022-11-19T20:31:30.147Z,100181.72
2022-11-19T20:34:00.315Z,100190.56
2022-11-19T20:36:29.868Z,100186.16
2022-11-19T20:39:00.449Z,100195.47
2022-11-19T20:41:47.019Z,100188.78
2022-11-19T20:44:23.210Z,100196.19
2022-11-19T20:46:59.040Z,100197.81
2022-11-19T20:49:30.086Z,100206.78
2022-11-19T20:51:58.247Z,100202.22
2022-11-19T20:54:26.626Z,100206.78
2022-11-19T20:56:55.518Z,100203.66
2022-11-19T20:59:26.126Z,100212.84
2022-11-19T21:01:55.792Z,100214.75
2022-11-19T21:04:25.570Z,100218.44
2022-11-19T21:06:56.858Z,100219.53
2022-11-19T21:09:25.404Z,100217.75
2022-11-19T21:11:53.671Z,100222.75
2022-11-19T21:14:21.832Z,100226.56
2022-11-19T21:16:49.403Z,100231.56
2022-11-19T21:19:17.119Z,100235.28
2022-11-19T21:21:45.687Z,100240.06
2022-11-19T21:24:13.810Z,100240.53
2022-11-19T21:26:41.612Z,100235.16
2022-11-19T21:29:09.695Z,100236.94
2022-11-19T21:31:45.695Z,100243.00
2022-11-19T21:34:18.347Z,100242.50
2022-11-19T21:36:47.599Z,100248.44
2022-11-19T21:39:17.265Z,100246.28
2022-11-19T21:41:45.005Z,100245.59
2022-11-19T21:44:16.801Z,100243.94
2022-11-19T21:46:49.425Z,100247.56
2022-11-19T21:49:17.516Z,100256.69
2022-11-19T21:51:45.654Z,100254.97
2022-11-19T21:54:13.651Z,100263.66
2022-11-19T21:56:41.790Z,100260.88
2022-11-19T21:59:09.438Z,100256.41
2022-11-19T22:01:37.309Z,100259.88
2022-11-19T22:04:05.286Z,100260.09
2022-11-19T22:06:33.824Z,100263.16
2022-11-19T22:09:01.949Z,100266.09
2022-11-19T22:11:29.713Z,100265.88
2022-11-19T22:14:06.076Z,100269.25
2022-11-19T22:16:36.235Z,100272.22
2022-11-19T22:19:05.717Z,100280.38
2022-11-19T22:21:34.375Z,100269.06
2022-11-19T22:24:02.253Z,100267.16
2022-11-19T22:26:29.830Z,100272.59
2022-11-19T22:28:57.464Z,100278.28
2022-11-19T22:31:25.723Z,100278.88
2022-11-19T22:33:53.971Z,100278.88
2022-11-19T22:36:22.994Z,100283.09
2022-11-19T22:38:52.342Z,100290.84
2022-11-19T22:41:21.736Z,100283.72
2022-11-19T22:43:50.888Z,100290.31
2022-11-19T22:46:19.023Z,100292.63
2022-11-19T22:48:46.807Z,100296.38
2022-11-19T22:51:23.531Z,100299.53
2022-11-19T22:53:52.740Z,100298.16
2022-11-19T22:56:26.065Z,100297.31
2022-11-19T22:58:54.882Z,100305.41
2022-11-19T23:01:28.493Z,100309.50
2022-11-19T23:03:58.265Z,100311.28
2022-11-19T23:06:26.636Z,100313.28
2022-11-19T23:08:54.227Z,100302.81
2022-11-19T23:11:41.783Z,100313.28
2022-11-19T23:14:13.449Z,100314.22
2022-11-19T23:16:41.463Z,100315.16
2022-11-19T23:19:10.858Z,100318.75
2022-11-19T23:21:39.231Z,100321.75
2022-11-19T23:24:07.933Z,100322.50
2022-11-19T23:26:35.988Z,100317.78
2022-11-19T23:29:04.422Z,100326.47
2022-11-19T23:31:37.838Z,100315.16
2022-11-19T23:34:05.734Z,100313.91
2022-11-19T23:36:36.620Z,100302.41
2022-11-19T23:39:05.561Z,100308.81
2022-11-19T23:41:34.571Z,100305.88
2022-11-19T23:44:02.535Z,100301.03
2022-11-19T23:46:32.916Z,100310.56
2022-11-19T23:49:01.890Z,100306.56
2022-11-19T23:51:35.410Z,100305.84
2022-11-19T23:54:04.507Z,100318.97
2022-11-19T23:56:35.929Z,100302.91
2022-11-19T23:59:05.232Z,100311.38
